sensor_id;sensor_type;location;lat;lon;timestamp;P1;durP1;ratioP1;P2;durP2;ratioP2
21315;SDS011;10817;55.820;13.030;2023-07-31T00:00:06;13.00;;;2.15;;
21315;SDS011;10817;55.820;13.030;2023-07-31T00:02:35;10.68;;;2.72;;
21315;SDS011;10817;55.820;13.030;2023-07-31T00:05:04;11.40;;;2.20;;
21315;SDS011;10817;55.820;13.030;2023-07-31T00:07:32;10.95;;;1.95;;
21315;SDS011;10817;55.820;13.030;2023-07-31T00:09:59;5.93;;;1.73;;
21315;SDS011;10817;55.820;13.030;2023-07-31T00:12:26;8.38;;;1.63;;
21315;SDS011;10817;55.820;13.030;2023-07-31T00:14:53;10.43;;;2.17;;
21315;SDS011;10817;55.820;13.030;2023-07-31T00:17:20;12.65;;;1.90;;
21315;SDS011;10817;55.820;13.030;2023-07-31T00:19:48;9.20;;;2.30;;
21315;SDS011;10817;55.820;13.030;2023-07-31T00:22:17;8.35;;;1.85;;
21315;SDS011;10817;55.820;13.030;2023-07-31T00:24:44;5.22;;;1.88;;
21315;SDS011;10817;55.820;13.030;2023-07-31T00:27:11;13.80;;;2.22;;
21315;SDS011;10817;55.820;13.030;2023-07-31T00:29:38;7.88;;;1.80;;
21315;SDS011;10817;55.820;13.030;2023-07-31T00:32:06;10.18;;;2.35;;
21315;SDS011;10817;55.820;13.030;2023-07-31T00:34:35;14.38;;;2.92;;
21315;SDS011;10817;55.820;13.030;2023-07-31T00:37:03;12.68;;;1.92;;
21315;SDS011;10817;55.820;13.030;2023-07-31T00:39:33;9.45;;;2.20;;
21315;SDS011;10817;55.820;13.030;2023-07-31T00:42:01;10.32;;;2.20;;
21315;SDS011;10817;55.820;13.030;2023-07-31T00:44:28;8.88;;;2.10;;
21315;SDS011;10817;55.820;13.030;2023-07-31T00:46:55;12.00;;;1.88;;
21315;SDS011;10817;55.820;13.030;2023-07-31T00:49:24;10.43;;;1.92;;
21315;SDS011;10817;55.820;13.030;2023-07-31T00:51:51;16.00;;;2.22;;
21315;SDS011;10817;55.820;13.030;2023-07-31T00:54:19;9.13;;;1.63;;
21315;SDS011;10817;55.820;13.030;2023-07-31T00:56:47;8.18;;;2.10;;
21315;SDS011;10817;55.820;13.030;2023-07-31T00:59:14;4.80;;;1.70;;
21315;SDS011;10817;55.820;13.030;2023-07-31T01:01:44;16.67;;;2.83;;
21315;SDS011;10817;55.820;13.030;2023-07-31T01:04:11;10.65;;;2.22;;
21315;SDS011;10817;55.820;13.030;2023-07-31T01:06:40;12.48;;;2.33;;
21315;SDS011;10817;55.820;13.030;2023-07-31T01:09:13;10.90;;;2.03;;
21315;SDS011;10817;55.820;13.030;2023-07-31T01:11:46;14.70;;;2.40;;
21315;SDS011;10817;55.820;13.030;2023-07-31T01:14:15;11.18;;;2.75;;
21315;SDS011;10817;55.820;13.030;2023-07-31T01:16:42;7.75;;;1.88;;
21315;SDS011;10817;55.820;13.030;2023-07-31T01:19:09;11.38;;;2.00;;
21315;SDS011;10817;55.820;13.030;2023-07-31T01:21:41;9.73;;;2.50;;
21315;SDS011;10817;55.820;13.030;2023-07-31T01:24:21;21.15;;;2.30;;
21315;SDS011;10817;55.820;13.030;2023-07-31T01:26:53;12.10;;;2.42;;
21315;SDS011;10817;55.820;13.030;2023-07-31T01:29:24;14.10;;;2.30;;
21315;SDS011;10817;55.820;13.030;2023-07-31T01:31:53;12.07;;;2.30;;
21315;SDS011;10817;55.820;13.030;2023-07-31T01:34:20;13.07;;;2.55;;
21315;SDS011;10817;55.820;13.030;2023-07-31T01:36:48;13.48;;;2.42;;
21315;SDS011;10817;55.820;13.030;2023-07-31T01:39:16;13.57;;;2.83;;
21315;SDS011;10817;55.820;13.030;2023-07-31T01:41:43;9.23;;;2.13;;
21315;SDS011;10817;55.820;13.030;2023-07-31T01:44:12;10.48;;;2.17;;
21315;SDS011;10817;55.820;13.030;2023-07-31T01:46:39;9.70;;;2.40;;
21315;SDS011;10817;55.820;13.030;2023-07-31T01:49:06;11.52;;;2.58;;
21315;SDS011;10817;55.820;13.030;2023-07-31T01:51:34;15.02;;;2.72;;
21315;SDS011;10817;55.820;13.030;2023-07-31T01:54:01;12.25;;;3.35;;
21315;SDS011;10817;55.820;13.030;2023-07-31T01:56:29;13.90;;;2.90;;
21315;SDS011;10817;55.820;13.030;2023-07-31T01:58:56;12.75;;;2.50;;
21315;SDS011;10817;55.820;13.030;2023-07-31T02:01:25;11.38;;;2.97;;
21315;SDS011;10817;55.820;13.030;2023-07-31T02:03:52;15.45;;;2.95;;
21315;SDS011;10817;55.820;13.030;2023-07-31T02:06:21;14.70;;;2.88;;
21315;SDS011;10817;55.820;13.030;2023-07-31T02:08:48;11.50;;;2.67;;
21315;SDS011;10817;55.820;13.030;2023-07-31T02:11:15;14.02;;;2.75;;
21315;SDS011;10817;55.820;13.030;2023-07-31T02:13:43;15.50;;;2.75;;
21315;SDS011;10817;55.820;13.030;2023-07-31T02:16:10;15.60;;;3.05;;
21315;SDS011;10817;55.820;13.030;2023-07-31T02:18:39;16.15;;;3.17;;
21315;SDS011;10817;55.820;13.030;2023-07-31T02:21:06;15.38;;;2.97;;
21315;SDS011;10817;55.820;13.030;2023-07-31T02:23:33;10.98;;;2.78;;
21315;SDS011;10817;55.820;13.030;2023-07-31T02:26:00;11.23;;;3.05;;
21315;SDS011;10817;55.820;13.030;2023-07-31T02:28:28;14.05;;;3.05;;
21315;SDS011;10817;55.820;13.030;2023-07-31T02:30:56;12.18;;;4.70;;
21315;SDS011;10817;55.820;13.030;2023-07-31T02:33:23;13.77;;;2.47;;
21315;SDS011;10817;55.820;13.030;2023-07-31T02:35:52;11.57;;;2.83;;
21315;SDS011;10817;55.820;13.030;2023-07-31T02:38:21;12.10;;;2.40;;
21315;SDS011;10817;55.820;13.030;2023-07-31T02:40:48;16.77;;;3.03;;
21315;SDS011;10817;55.820;13.030;2023-07-31T02:43:15;12.02;;;2.60;;
21315;SDS011;10817;55.820;13.030;2023-07-31T02:45:42;16.13;;;2.97;;
21315;SDS011;10817;55.820;13.030;2023-07-31T02:48:10;19.35;;;2.72;;
21315;SDS011;10817;55.820;13.030;2023-07-31T02:50:37;18.05;;;2.83;;
21315;SDS011;10817;55.820;13.030;2023-07-31T02:53:06;18.15;;;3.08;;
21315;SDS011;10817;55.820;13.030;2023-07-31T02:55:33;12.25;;;2.85;;
21315;SDS011;10817;55.820;13.030;2023-07-31T02:58:00;13.43;;;2.97;;
21315;SDS011;10817;55.820;13.030;2023-07-31T03:00:27;15.90;;;3.50;;
21315;SDS011;10817;55.820;13.030;2023-07-31T03:02:54;20.00;;;3.10;;
21315;SDS011;10817;55.820;13.030;2023-07-31T03:05:22;10.77;;;2.40;;
21315;SDS011;10817;55.820;13.030;2023-07-31T03:07:49;8.98;;;2.78;;
21315;SDS011;10817;55.820;13.030;2023-07-31T03:10:17;14.55;;;2.75;;
21315;SDS011;10817;55.820;13.030;2023-07-31T03:12:46;20.60;;;3.28;;
21315;SDS011;10817;55.820;13.030;2023-07-31T03:15:13;8.55;;;2.65;;
21315;SDS011;10817;55.820;13.030;2023-07-31T03:17:40;15.20;;;3.05;;
21315;SDS011;10817;55.820;13.030;2023-07-31T03:20:08;10.82;;;2.70;;
21315;SDS011;10817;55.820;13.030;2023-07-31T03:22:35;17.45;;;3.28;;
21315;SDS011;10817;55.820;13.030;2023-07-31T03:25:03;9.70;;;2.70;;
21315;SDS011;10817;55.820;13.030;2023-07-31T03:27:32;14.68;;;2.90;;
21315;SDS011;10817;55.820;13.030;2023-07-31T03:29:59;10.73;;;2.58;;
21315;SDS011;10817;55.820;13.030;2023-07-31T03:32:26;11.10;;;2.90;;
21315;SDS011;10817;55.820;13.030;2023-07-31T03:34:53;21.75;;;3.00;;
21315;SDS011;10817;55.820;13.030;2023-07-31T03:37:21;8.68;;;2.72;;
21315;SDS011;10817;55.820;13.030;2023-07-31T03:39:48;9.05;;;2.78;;
21315;SDS011;10817;55.820;13.030;2023-07-31T03:42:15;10.45;;;3.08;;
21315;SDS011;10817;55.820;13.030;2023-07-31T03:44:44;15.70;;;3.15;;
21315;SDS011;10817;55.820;13.030;2023-07-31T03:47:11;9.93;;;3.10;;
21315;SDS011;10817;55.820;13.030;2023-07-31T03:49:38;16.70;;;3.20;;
21315;SDS011;10817;55.820;13.030;2023-07-31T03:52:06;12.52;;;3.03;;
21315;SDS011;10817;55.820;13.030;2023-07-31T03:54:33;16.48;;;3.78;;
21315;SDS011;10817;55.820;13.030;2023-07-31T03:57:00;17.48;;;3.30;;
21315;SDS011;10817;55.820;13.030;2023-07-31T03:59:27;14.98;;;3.85;;
21315;SDS011;10817;55.820;13.030;2023-07-31T04:01:56;21.58;;;3.85;;
21315;SDS011;10817;55.820;13.030;2023-07-31T04:04:23;9.75;;;3.30;;
21315;SDS011;10817;55.820;13.030;2023-07-31T04:06:50;13.35;;;3.90;;
21315;SDS011;10817;55.820;13.030;2023-07-31T04:09:17;18.60;;;3.75;;
21315;SDS011;10817;55.820;13.030;2023-07-31T04:11:44;16.60;;;3.45;;
21315;SDS011;10817;55.820;13.030;2023-07-31T04:14:11;18.45;;;3.50;;
21315;SDS011;10817;55.820;13.030;2023-07-31T04:16:38;19.52;;;4.07;;
21315;SDS011;10817;55.820;13.030;2023-07-31T04:19:07;20.20;;;3.20;;
21315;SDS011;10817;55.820;13.030;2023-07-31T04:21:35;16.88;;;3.83;;
21315;SDS011;10817;55.820;13.030;2023-07-31T04:24:03;12.73;;;3.30;;
21315;SDS011;10817;55.820;13.030;2023-07-31T04:26:30;13.23;;;3.38;;
21315;SDS011;10817;55.820;13.030;2023-07-31T04:28:57;10.70;;;2.65;;
21315;SDS011;10817;55.820;13.030;2023-07-31T04:31:24;8.20;;;2.42;;
21315;SDS011;10817;55.820;13.030;2023-07-31T04:33:52;13.80;;;3.67;;
21315;SDS011;10817;55.820;13.030;2023-07-31T04:36:21;17.42;;;3.40;;
21315;SDS011;10817;55.820;13.030;2023-07-31T04:38:48;15.93;;;2.50;;
21315;SDS011;10817;55.820;13.030;2023-07-31T04:41:16;11.10;;;2.63;;
21315;SDS011;10817;55.820;13.030;2023-07-31T04:43:43;20.70;;;3.00;;
21315;SDS011;10817;55.820;13.030;2023-07-31T04:46:10;13.23;;;2.45;;
21315;SDS011;10817;55.820;13.030;2023-07-31T04:48:37;17.00;;;3.63;;
21315;SDS011;10817;55.820;13.030;2023-07-31T04:51:04;12.60;;;2.30;;
21315;SDS011;10817;55.820;13.030;2023-07-31T04:53:33;7.93;;;2.35;;
21315;SDS011;10817;55.820;13.030;2023-07-31T04:56:00;12.27;;;2.33;;
21315;SDS011;10817;55.820;13.030;2023-07-31T04:58:27;12.70;;;2.28;;
21315;SDS011;10817;55.820;13.030;2023-07-31T05:00:54;13.32;;;2.33;;
21315;SDS011;10817;55.820;13.030;2023-07-31T05:03:21;11.40;;;2.40;;
21315;SDS011;10817;55.820;13.030;2023-07-31T05:05:49;11.10;;;2.55;;
21315;SDS011;10817;55.820;13.030;2023-07-31T05:08:16;10.90;;;2.20;;
21315;SDS011;10817;55.820;13.030;2023-07-31T05:10:45;9.27;;;1.58;;
21315;SDS011;10817;55.820;13.030;2023-07-31T05:13:12;8.63;;;2.05;;
21315;SDS011;10817;55.820;13.030;2023-07-31T05:15:39;6.72;;;2.05;;
21315;SDS011;10817;55.820;13.030;2023-07-31T05:18:07;7.57;;;1.60;;
21315;SDS011;10817;55.820;13.030;2023-07-31T05:20:35;6.38;;;1.52;;
21315;SDS011;10817;55.820;13.030;2023-07-31T05:23:02;6.88;;;1.63;;
21315;SDS011;10817;55.820;13.030;2023-07-31T05:25:29;7.80;;;1.50;;
21315;SDS011;10817;55.820;13.030;2023-07-31T05:27:57;6.95;;;1.52;;
21315;SDS011;10817;55.820;13.030;2023-07-31T05:30:24;8.43;;;2.00;;
21315;SDS011;10817;55.820;13.030;2023-07-31T05:32:52;6.22;;;1.58;;
21315;SDS011;10817;55.820;13.030;2023-07-31T05:35:19;8.93;;;1.88;;
21315;SDS011;10817;55.820;13.030;2023-07-31T05:37:46;6.25;;;1.50;;
21315;SDS011;10817;55.820;13.030;2023-07-31T05:40:13;7.78;;;1.92;;
21315;SDS011;10817;55.820;13.030;2023-07-31T05:42:40;6.03;;;1.40;;
21315;SDS011;10817;55.820;13.030;2023-07-31T05:45:09;6.43;;;1.83;;
21315;SDS011;10817;55.820;13.030;2023-07-31T05:47:38;10.38;;;1.52;;
21315;SDS011;10817;55.820;13.030;2023-07-31T05:50:05;5.82;;;1.52;;
21315;SDS011;10817;55.820;13.030;2023-07-31T05:52:33;6.97;;;2.15;;
21315;SDS011;10817;55.820;13.030;2023-07-31T05:55:00;4.50;;;1.35;;
21315;SDS011;10817;55.820;13.030;2023-07-31T05:57:28;3.75;;;1.20;;
21315;SDS011;10817;55.820;13.030;2023-07-31T05:59:55;9.52;;;1.65;;
21315;SDS011;10817;55.820;13.030;2023-07-31T06:02:23;5.35;;;1.60;;
21315;SDS011;10817;55.820;13.030;2023-07-31T06:04:50;7.70;;;1.33;;
21315;SDS011;10817;55.820;13.030;2023-07-31T06:07:17;3.45;;;1.50;;
21315;SDS011;10817;55.820;13.030;2023-07-31T06:09:45;4.60;;;1.45;;
21315;SDS011;10817;55.820;13.030;2023-07-31T06:12:12;6.20;;;1.27;;
21315;SDS011;10817;55.820;13.030;2023-07-31T06:14:42;4.45;;;1.50;;
21315;SDS011;10817;55.820;13.030;2023-07-31T06:17:10;5.97;;;1.65;;
21315;SDS011;10817;55.820;13.030;2023-07-31T06:19:38;4.75;;;1.30;;
21315;SDS011;10817;55.820;13.030;2023-07-31T06:22:05;7.85;;;1.50;;
21315;SDS011;10817;55.820;13.030;2023-07-31T06:24:32;6.18;;;1.50;;
21315;SDS011;10817;55.820;13.030;2023-07-31T06:27:00;6.65;;;1.90;;
21315;SDS011;10817;55.820;13.030;2023-07-31T06:29:29;7.50;;;1.73;;
21315;SDS011;10817;55.820;13.030;2023-07-31T06:31:56;7.95;;;1.75;;
21315;SDS011;10817;55.820;13.030;2023-07-31T06:34:23;5.40;;;1.55;;
21315;SDS011;10817;55.820;13.030;2023-07-31T06:36:51;4.90;;;1.33;;
21315;SDS011;10817;55.820;13.030;2023-07-31T06:39:18;4.28;;;1.58;;
21315;SDS011;10817;55.820;13.030;2023-07-31T06:41:45;6.90;;;2.10;;
21315;SDS011;10817;55.820;13.030;2023-07-31T06:44:13;6.32;;;1.45;;
21315;SDS011;10817;55.820;13.030;2023-07-31T06:46:40;9.30;;;2.17;;
21315;SDS011;10817;55.820;13.030;2023-07-31T06:49:07;4.55;;;1.52;;
21315;SDS011;10817;55.820;13.030;2023-07-31T06:51:34;5.53;;;1.95;;
21315;SDS011;10817;55.820;13.030;2023-07-31T06:54:05;5.72;;;1.25;;
21315;SDS011;10817;55.820;13.030;2023-07-31T06:56:32;2.85;;;1.23;;
21315;SDS011;10817;55.820;13.030;2023-07-31T06:58:59;6.57;;;1.45;;
21315;SDS011;10817;55.820;13.030;2023-07-31T07:01:26;3.05;;;1.08;;
21315;SDS011;10817;55.820;13.030;2023-07-31T07:03:53;2.70;;;1.30;;
21315;SDS011;10817;55.820;13.030;2023-07-31T07:06:21;5.93;;;1.50;;
21315;SDS011;10817;55.820;13.030;2023-07-31T07:08:48;6.43;;;1.50;;
21315;SDS011;10817;55.820;13.030;2023-07-31T07:11:17;5.38;;;1.27;;
21315;SDS011;10817;55.820;13.030;2023-07-31T07:13:44;5.60;;;1.33;;
21315;SDS011;10817;55.820;13.030;2023-07-31T07:16:11;4.60;;;1.45;;
21315;SDS011;10817;55.820;13.030;2023-07-31T07:18:38;8.23;;;1.45;;
21315;SDS011;10817;55.820;13.030;2023-07-31T07:21:05;3.08;;;1.40;;
21315;SDS011;10817;55.820;13.030;2023-07-31T07:23:33;8.90;;;1.42;;
21315;SDS011;10817;55.820;13.030;2023-07-31T07:26:00;7.03;;;1.27;;
21315;SDS011;10817;55.820;13.030;2023-07-31T07:28:29;5.82;;;1.20;;
21315;SDS011;10817;55.820;13.030;2023-07-31T07:30:56;4.70;;;1.45;;
21315;SDS011;10817;55.820;13.030;2023-07-31T07:33:23;7.18;;;1.60;;
21315;SDS011;10817;55.820;13.030;2023-07-31T07:35:51;4.97;;;1.40;;
21315;SDS011;10817;55.820;13.030;2023-07-31T07:38:18;6.88;;;1.45;;
21315;SDS011;10817;55.820;13.030;2023-07-31T07:40:45;7.72;;;1.45;;
21315;SDS011;10817;55.820;13.030;2023-07-31T07:43:15;3.83;;;1.40;;
21315;SDS011;10817;55.820;13.030;2023-07-31T07:45:44;9.02;;;2.05;;
21315;SDS011;10817;55.820;13.030;2023-07-31T07:48:11;6.03;;;1.80;;
21315;SDS011;10817;55.820;13.030;2023-07-31T07:50:38;5.15;;;1.65;;
21315;SDS011;10817;55.820;13.030;2023-07-31T07:53:05;5.70;;;1.80;;
21315;SDS011;10817;55.820;13.030;2023-07-31T07:55:32;6.75;;;1.60;;
21315;SDS011;10817;55.820;13.030;2023-07-31T07:57:59;4.03;;;1.27;;
21315;SDS011;10817;55.820;13.030;2023-07-31T08:00:26;6.68;;;1.50;;
21315;SDS011;10817;55.820;13.030;2023-07-31T08:02:55;3.90;;;1.30;;
21315;SDS011;10817;55.820;13.030;2023-07-31T08:05:23;6.55;;;1.67;;
21315;SDS011;10817;55.820;13.030;2023-07-31T08:07:50;5.93;;;1.45;;
21315;SDS011;10817;55.820;13.030;2023-07-31T08:10:18;8.05;;;2.00;;
21315;SDS011;10817;55.820;13.030;2023-07-31T08:12:45;7.28;;;1.42;;
21315;SDS011;10817;55.820;13.030;2023-07-31T08:15:12;5.90;;;1.98;;
21315;SDS011;10817;55.820;13.030;2023-07-31T08:17:39;5.22;;;1.60;;
21315;SDS011;10817;55.820;13.030;2023-07-31T08:20:08;8.05;;;1.73;;
21315;SDS011;10817;55.820;13.030;2023-07-31T08:22:35;5.18;;;1.58;;
21315;SDS011;10817;55.820;13.030;2023-07-31T08:25:03;7.13;;;1.70;;
21315;SDS011;10817;55.820;13.030;2023-07-31T08:27:31;7.18;;;1.33;;
21315;SDS011;10817;55.820;13.030;2023-07-31T08:29:58;4.38;;;1.65;;
21315;SDS011;10817;55.820;13.030;2023-07-31T08:32:25;5.15;;;1.48;;
21315;SDS011;10817;55.820;13.030;2023-07-31T08:34:52;7.10;;;1.77;;
21315;SDS011;10817;55.820;13.030;2023-07-31T08:37:20;7.60;;;1.80;;
21315;SDS011;10817;55.820;13.030;2023-07-31T08:39:47;7.78;;;1.90;;
21315;SDS011;10817;55.820;13.030;2023-07-31T08:42:15;4.93;;;1.50;;
21315;SDS011;10817;55.820;13.030;2023-07-31T08:44:42;5.00;;;1.40;;
21315;SDS011;10817;55.820;13.030;2023-07-31T08:47:10;3.72;;;1.45;;
21315;SDS011;10817;55.820;13.030;2023-07-31T08:49:37;6.07;;;1.52;;
21315;SDS011;10817;55.820;13.030;2023-07-31T08:52:06;4.50;;;1.50;;
21315;SDS011;10817;55.820;13.030;2023-07-31T08:54:35;6.30;;;1.52;;
21315;SDS011;10817;55.820;13.030;2023-07-31T08:57:02;6.25;;;1.35;;
21315;SDS011;10817;55.820;13.030;2023-07-31T08:59:30;4.93;;;1.33;;
21315;SDS011;10817;55.820;13.030;2023-07-31T09:01:57;10.48;;;1.60;;
21315;SDS011;10817;55.820;13.030;2023-07-31T09:04:27;5.85;;;1.50;;
21315;SDS011;10817;55.820;13.030;2023-07-31T09:06:56;2.53;;;1.20;;
21315;SDS011;10817;55.820;13.030;2023-07-31T09:09:24;3.95;;;1.38;;
21315;SDS011;10817;55.820;13.030;2023-07-31T09:11:53;2.88;;;1.08;;
21315;SDS011;10817;55.820;13.030;2023-07-31T09:14:21;3.88;;;1.40;;
21315;SDS011;10817;55.820;13.030;2023-07-31T09:16:52;4.45;;;1.48;;
21315;SDS011;10817;55.820;13.030;2023-07-31T09:19:26;6.75;;;1.35;;
21315;SDS011;10817;55.820;13.030;2023-07-31T09:21:53;5.90;;;1.23;;
21315;SDS011;10817;55.820;13.030;2023-07-31T09:24:27;5.35;;;1.00;;
21315;SDS011;10817;55.820;13.030;2023-07-31T09:26:56;5.07;;;1.42;;
21315;SDS011;10817;55.820;13.030;2023-07-31T09:29:24;5.38;;;1.10;;
21315;SDS011;10817;55.820;13.030;2023-07-31T09:31:52;3.33;;;0.90;;
21315;SDS011;10817;55.820;13.030;2023-07-31T09:34:20;4.35;;;1.10;;
21315;SDS011;10817;55.820;13.030;2023-07-31T09:36:49;2.67;;;1.13;;
21315;SDS011;10817;55.820;13.030;2023-07-31T09:39:18;4.93;;;1.30;;
21315;SDS011;10817;55.820;13.030;2023-07-31T09:41:47;4.13;;;1.30;;
21315;SDS011;10817;55.820;13.030;2023-07-31T09:44:16;5.25;;;1.40;;
21315;SDS011;10817;55.820;13.030;2023-07-31T09:46:43;3.30;;;0.70;;
21315;SDS011;10817;55.820;13.030;2023-07-31T09:49:10;1.05;;;0.50;;
21315;SDS011;10817;55.820;13.030;2023-07-31T09:51:38;3.00;;;0.85;;
21315;SDS011;10817;55.820;13.030;2023-07-31T09:54:09;2.80;;;0.80;;
21315;SDS011;10817;55.820;13.030;2023-07-31T09:56:38;2.50;;;0.95;;
21315;SDS011;10817;55.820;13.030;2023-07-31T09:59:08;2.63;;;0.93;;
21315;SDS011;10817;55.820;13.030;2023-07-31T10:01:38;3.03;;;1.25;;
21315;SDS011;10817;55.820;13.030;2023-07-31T10:04:07;6.57;;;1.58;;
21315;SDS011;10817;55.820;13.030;2023-07-31T10:06:35;5.78;;;1.40;;
21315;SDS011;10817;55.820;13.030;2023-07-31T10:09:03;4.75;;;1.30;;
21315;SDS011;10817;55.820;13.030;2023-07-31T10:11:32;7.60;;;1.65;;
21315;SDS011;10817;55.820;13.030;2023-07-31T10:14:00;6.47;;;1.98;;
21315;SDS011;10817;55.820;13.030;2023-07-31T10:16:28;7.25;;;1.80;;
21315;SDS011;10817;55.820;13.030;2023-07-31T10:18:57;6.07;;;1.60;;
21315;SDS011;10817;55.820;13.030;2023-07-31T10:21:25;7.50;;;1.42;;
21315;SDS011;10817;55.820;13.030;2023-07-31T10:23:52;6.28;;;1.50;;
21315;SDS011;10817;55.820;13.030;2023-07-31T10:26:20;5.13;;;1.65;;
21315;SDS011;10817;55.820;13.030;2023-07-31T10:28:50;6.43;;;1.70;;
21315;SDS011;10817;55.820;13.030;2023-07-31T10:31:19;6.95;;;1.70;;
21315;SDS011;10817;55.820;13.030;2023-07-31T10:33:46;12.93;;;1.90;;
21315;SDS011;10817;55.820;13.030;2023-07-31T10:36:15;4.72;;;1.60;;
21315;SDS011;10817;55.820;13.030;2023-07-31T10:38:44;5.50;;;2.15;;
21315;SDS011;10817;55.820;13.030;2023-07-31T10:41:11;5.22;;;1.80;;
21315;SDS011;10817;55.820;13.030;2023-07-31T10:43:38;4.20;;;1.40;;
21315;SDS011;10817;55.820;13.030;2023-07-31T10:46:08;6.43;;;1.73;;
21315;SDS011;10817;55.820;13.030;2023-07-31T10:48:36;6.82;;;2.00;;
21315;SDS011;10817;55.820;13.030;2023-07-31T10:51:07;8.40;;;2.00;;
21315;SDS011;10817;55.820;13.030;2023-07-31T10:53:36;5.03;;;1.73;;
21315;SDS011;10817;55.820;13.030;2023-07-31T10:56:03;7.10;;;1.98;;
21315;SDS011;10817;55.820;13.030;2023-07-31T10:58:31;4.82;;;1.70;;
21315;SDS011;10817;55.820;13.030;2023-07-31T11:00:59;6.82;;;1.70;;
21315;SDS011;10817;55.820;13.030;2023-07-31T11:03:40;4.30;;;1.55;;
21315;SDS011;10817;55.820;13.030;2023-07-31T11:06:08;5.35;;;1.65;;
21315;SDS011;10817;55.820;13.030;2023-07-31T11:08:41;6.05;;;2.10;;
21315;SDS011;10817;55.820;13.030;2023-07-31T11:11:09;4.10;;;1.98;;
21315;SDS011;10817;55.820;13.030;2023-07-31T11:13:40;4.90;;;2.30;;
21315;SDS011;10817;55.820;13.030;2023-07-31T11:16:08;6.38;;;2.30;;
21315;SDS011;10817;55.820;13.030;2023-07-31T11:18:35;11.02;;;2.13;;
21315;SDS011;10817;55.820;13.030;2023-07-31T11:21:02;9.38;;;2.53;;
21315;SDS011;10817;55.820;13.030;2023-07-31T11:23:30;6.72;;;2.22;;
21315;SDS011;10817;55.820;13.030;2023-07-31T11:26:00;6.20;;;3.00;;
21315;SDS011;10817;55.820;13.030;2023-07-31T11:28:31;8.30;;;2.60;;
21315;SDS011;10817;55.820;13.030;2023-07-31T11:30:59;4.82;;;2.38;;
21315;SDS011;10817;55.820;13.030;2023-07-31T11:33:26;7.25;;;2.20;;
21315;SDS011;10817;55.820;13.030;2023-07-31T11:35:54;4.55;;;1.88;;
21315;SDS011;10817;55.820;13.030;2023-07-31T11:38:21;5.38;;;1.67;;
21315;SDS011;10817;55.820;13.030;2023-07-31T11:40:49;6.32;;;2.03;;
21315;SDS011;10817;55.820;13.030;2023-07-31T11:43:18;5.10;;;1.85;;
21315;SDS011;10817;55.820;13.030;2023-07-31T11:45:46;2.10;;;1.25;;
21315;SDS011;10817;55.820;13.030;2023-07-31T11:48:20;4.43;;;1.45;;
21315;SDS011;10817;55.820;13.030;2023-07-31T11:50:47;2.88;;;1.20;;
21315;SDS011;10817;55.820;13.030;2023-07-31T11:53:15;5.13;;;1.33;;
21315;SDS011;10817;55.820;13.030;2023-07-31T11:55:44;4.10;;;1.55;;
21315;SDS011;10817;55.820;13.030;2023-07-31T11:58:11;3.47;;;1.33;;
21315;SDS011;10817;55.820;13.030;2023-07-31T12:00:40;4.75;;;1.90;;
21315;SDS011;10817;55.820;13.030;2023-07-31T12:03:07;5.55;;;2.20;;
21315;SDS011;10817;55.820;13.030;2023-07-31T12:05:35;9.98;;;1.80;;
21315;SDS011;10817;55.820;13.030;2023-07-31T12:08:08;5.10;;;1.75;;
21315;SDS011;10817;55.820;13.030;2023-07-31T12:10:35;6.78;;;1.80;;
21315;SDS011;10817;55.820;13.030;2023-07-31T12:13:03;4.72;;;1.80;;
21315;SDS011;10817;55.820;13.030;2023-07-31T12:15:34;5.68;;;1.67;;
21315;SDS011;10817;55.820;13.030;2023-07-31T12:18:07;6.93;;;1.90;;
21315;SDS011;10817;55.820;13.030;2023-07-31T12:20:34;6.40;;;1.60;;
21315;SDS011;10817;55.820;13.030;2023-07-31T12:23:02;7.60;;;2.00;;
21315;SDS011;10817;55.820;13.030;2023-07-31T12:25:30;5.00;;;1.60;;
21315;SDS011;10817;55.820;13.030;2023-07-31T12:27:57;3.30;;;1.50;;
21315;SDS011;10817;55.820;13.030;2023-07-31T12:30:28;3.65;;;1.25;;
21315;SDS011;10817;55.820;13.030;2023-07-31T12:32:55;2.70;;;1.30;;
21315;SDS011;10817;55.820;13.030;2023-07-31T12:35:24;4.55;;;1.67;;
21315;SDS011;10817;55.820;13.030;2023-07-31T12:37:51;3.08;;;1.38;;
21315;SDS011;10817;55.820;13.030;2023-07-31T12:40:18;4.68;;;1.42;;
21315;SDS011;10817;55.820;13.030;2023-07-31T12:42:45;5.22;;;1.58;;
21315;SDS011;10817;55.820;13.030;2023-07-31T12:45:14;6.18;;;2.10;;
21315;SDS011;10817;55.820;13.030;2023-07-31T12:47:41;9.93;;;2.47;;
21315;SDS011;10817;55.820;13.030;2023-07-31T12:50:08;7.30;;;2.08;;
21315;SDS011;10817;55.820;13.030;2023-07-31T12:52:37;5.90;;;2.00;;
21315;SDS011;10817;55.820;13.030;2023-07-31T12:55:04;7.40;;;1.77;;
21315;SDS011;10817;55.820;13.030;2023-07-31T12:57:31;4.72;;;2.33;;
21315;SDS011;10817;55.820;13.030;2023-07-31T12:59:59;6.78;;;2.15;;
21315;SDS011;10817;55.820;13.030;2023-07-31T13:02:26;9.48;;;2.45;;
21315;SDS011;10817;55.820;13.030;2023-07-31T13:04:53;6.32;;;2.10;;
21315;SDS011;10817;55.820;13.030;2023-07-31T13:07:21;7.38;;;1.95;;
21315;SDS011;10817;55.820;13.030;2023-07-31T13:09:50;5.97;;;2.45;;
21315;SDS011;10817;55.820;13.030;2023-07-31T13:12:17;6.38;;;2.40;;
21315;SDS011;10817;55.820;13.030;2023-07-31T13:14:44;4.50;;;2.00;;
21315;SDS011;10817;55.820;13.030;2023-07-31T13:17:11;5.25;;;1.63;;
21315;SDS011;10817;55.820;13.030;2023-07-31T13:19:38;4.05;;;1.95;;
21315;SDS011;10817;55.820;13.030;2023-07-31T13:22:05;5.65;;;1.88;;
21315;SDS011;10817;55.820;13.030;2023-07-31T13:24:32;5.55;;;1.98;;
21315;SDS011;10817;55.820;13.030;2023-07-31T13:27:01;8.50;;;2.03;;
21315;SDS011;10817;55.820;13.030;2023-07-31T13:29:29;5.22;;;1.92;;
21315;SDS011;10817;55.820;13.030;2023-07-31T13:31:57;5.93;;;1.90;;
21315;SDS011;10817;55.820;13.030;2023-07-31T13:34:24;7.90;;;2.38;;
21315;SDS011;10817;55.820;13.030;2023-07-31T13:36:51;6.57;;;2.40;;
21315;SDS011;10817;55.820;13.030;2023-07-31T13:39:18;10.45;;;2.35;;
21315;SDS011;10817;55.820;13.030;2023-07-31T13:41:46;7.20;;;2.38;;
21315;SDS011;10817;55.820;13.030;2023-07-31T13:44:14;9.77;;;2.78;;
21315;SDS011;10817;55.820;13.030;2023-07-31T13:46:41;11.18;;;2.35;;
21315;SDS011;10817;55.820;13.030;2023-07-31T13:49:08;8.63;;;2.53;;
21315;SDS011;10817;55.820;13.030;2023-07-31T13:51:35;5.47;;;2.13;;
21315;SDS011;10817;55.820;13.030;2023-07-31T13:54:04;4.88;;;1.30;;
21315;SDS011;10817;55.820;13.030;2023-07-31T13:56:32;4.57;;;1.65;;
21315;SDS011;10817;55.820;13.030;2023-07-31T13:58:59;6.30;;;1.70;;
21315;SDS011;10817;55.820;13.030;2023-07-31T14:01:28;5.25;;;2.05;;
21315;SDS011;10817;55.820;13.030;2023-07-31T14:03:55;8.38;;;1.23;;
21315;SDS011;10817;55.820;13.030;2023-07-31T14:06:22;7.03;;;1.52;;
21315;SDS011;10817;55.820;13.030;2023-07-31T14:08:50;6.43;;;1.02;;
21315;SDS011;10817;55.820;13.030;2023-07-31T14:11:17;6.95;;;1.50;;
21315;SDS011;10817;55.820;13.030;2023-07-31T14:13:44;4.72;;;1.50;;
21315;SDS011;10817;55.820;13.030;2023-07-31T14:16:11;8.80;;;1.58;;
21315;SDS011;10817;55.820;13.030;2023-07-31T14:18:40;4.28;;;1.55;;
21315;SDS011;10817;55.820;13.030;2023-07-31T14:21:07;4.80;;;1.60;;
21315;SDS011;10817;55.820;13.030;2023-07-31T14:23:34;3.35;;;1.05;;
21315;SDS011;10817;55.820;13.030;2023-07-31T14:26:01;3.00;;;0.60;;
21315;SDS011;10817;55.820;13.030;2023-07-31T14:28:28;1.80;;;1.13;;
21315;SDS011;10817;55.820;13.030;2023-07-31T14:30:56;2.35;;;0.70;;
21315;SDS011;10817;55.820;13.030;2023-07-31T14:33:23;1.17;;;0.60;;